createdAt,value
2019-03-30T00:01:50.199Z,61.23
2019-03-30T00:04:18.978Z,58.27
2019-03-30T00:06:47.298Z,58.77
2019-03-30T00:09:15.689Z,58.53
2019-03-30T00:11:44.110Z,56.67
2019-03-30T00:14:12.430Z,61.20
2019-03-30T00:16:40.911Z,57.17
2019-03-30T00:19:09.403Z,58.17
2019-03-30T00:21:38.167Z,58.93
2019-03-30T00:24:06.546Z,58.67
2019-03-30T00:26:34.926Z,58.90
2019-03-30T00:29:03.313Z,59.73
2019-03-30T00:31:31.671Z,60.23
2019-03-30T00:34:00.086Z,58.97
2019-03-30T00:36:28.430Z,66.77
2019-03-30T00:38:56.808Z,62.43
2019-03-30T00:41:25.230Z,59.93
2019-03-30T00:43:53.528Z,64.37
2019-03-30T00:46:21.997Z,62.60
2019-03-30T00:48:50.471Z,62.20
2019-03-30T00:51:18.846Z,64.37
2019-03-30T00:53:47.249Z,61.93
2019-03-30T00:56:15.598Z,60.40
2019-03-30T00:58:43.990Z,63.00
2019-03-30T01:01:12.598Z,63.17
2019-03-30T01:03:41.428Z,64.03
2019-03-30T01:06:09.907Z,70.47
2019-03-30T01:08:38.271Z,63.13
2019-03-30T01:11:06.617Z,65.93
2019-03-30T01:13:35.027Z,65.83
2019-03-30T01:16:03.371Z,69.37
2019-03-30T01:18:32.242Z,65.40
2019-03-30T01:21:00.626Z,67.73
2019-03-30T01:23:29.021Z,66.53
2019-03-30T01:25:59.871Z,68.23
2019-03-30T01:28:28.304Z,70.70
2019-03-30T01:30:56.682Z,64.40
2019-03-30T01:33:25.028Z,63.30
2019-03-30T01:35:53.349Z,65.10
2019-03-30T01:38:21.691Z,65.03
2019-03-30T01:40:50.167Z,70.50
2019-03-30T01:43:18.510Z,61.03
2019-03-30T01:45:46.924Z,64.33
2019-03-30T01:51:36.684Z,67.03
2019-03-30T01:54:07.516Z,68.00
2019-03-30T01:56:35.892Z,64.43
2019-03-30T01:59:04.222Z,65.43
2019-03-30T02:01:32.600Z,60.27
2019-03-30T02:04:00.978Z,68.03
2019-03-30T02:06:29.329Z,60.90
2019-03-30T02:08:57.698Z,64.10
2019-03-30T02:11:26.053Z,65.20
2019-03-30T02:13:54.398Z,61.13
2019-03-30T02:16:22.847Z,66.10
2019-03-30T02:18:51.197Z,60.40
2019-03-30T02:21:55.627Z,62.97
2019-03-30T02:24:24.005Z,66.70
2019-03-30T02:26:52.404Z,62.30
2019-03-30T02:29:20.865Z,60.63
2019-03-30T02:31:49.249Z,65.30
2019-03-30T02:34:17.610Z,61.20
2019-03-30T02:36:45.917Z,57.70
2019-03-30T02:39:14.287Z,59.27
2019-03-30T02:41:42.658Z,56.03
2019-03-30T02:44:11.006Z,58.00
2019-03-30T02:46:39.390Z,55.47
2019-03-30T02:49:07.706Z,56.50
2019-03-30T02:51:36.139Z,56.97
2019-03-30T02:54:04.464Z,54.67
2019-03-30T02:56:32.858Z,52.10
2019-03-30T02:59:01.211Z,55.20
2019-03-30T03:01:29.601Z,53.00
2019-03-30T03:03:58.120Z,53.10
2019-03-30T03:06:26.594Z,62.00
2019-03-30T03:08:54.949Z,56.43
2019-03-30T03:11:23.315Z,57.43
2019-03-30T03:13:51.698Z,52.27
2019-03-30T03:16:20.113Z,54.77
2019-03-30T03:18:48.491Z,66.60
2019-03-30T03:21:16.858Z,66.63
2019-03-30T03:23:45.417Z,54.23
2019-03-30T03:26:13.813Z,55.97
2019-03-30T03:28:42.106Z,53.43
2019-03-30T03:31:10.761Z,55.57
2019-03-30T03:33:39.100Z,52.20
2019-03-30T03:36:07.552Z,50.70
2019-03-30T03:38:35.905Z,49.97
2019-03-30T03:41:04.277Z,52.27
2019-03-30T03:43:32.758Z,50.50
2019-03-30T03:46:01.119Z,49.90
2019-03-30T03:48:29.457Z,46.47
2019-03-30T03:51:00.308Z,51.37
2019-03-30T03:53:29.147Z,52.60
2019-03-30T03:55:58.273Z,44.07
2019-03-30T03:58:28.096Z,45.17
2019-03-30T04:00:58.042Z,46.00
2019-03-30T04:03:26.399Z,42.93
2019-03-30T04:05:56.222Z,46.50
2019-03-30T04:08:26.058Z,43.43
2019-03-30T04:10:54.988Z,44.67
2019-03-30T04:13:24.810Z,42.27
2019-03-30T04:15:53.169Z,42.53
2019-03-30T04:18:21.493Z,43.00
2019-03-30T04:20:49.838Z,44.37
2019-03-30T04:23:18.232Z,42.93
2019-03-30T04:25:47.785Z,41.07
2019-03-30T04:28:16.204Z,41.73
2019-03-30T04:30:44.607Z,44.93
2019-03-30T04:33:13.086Z,43.27
2019-03-30T04:35:41.429Z,42.07
2019-03-30T04:41:18.697Z,41.13
2019-03-30T04:43:47.073Z,42.07
2019-03-30T04:46:15.422Z,40.23
2019-03-30T04:48:43.878Z,43.63
2019-03-30T04:51:12.219Z,38.70
2019-03-30T04:53:43.322Z,42.07
2019-03-30T04:56:11.677Z,44.40
2019-03-30T04:58:40.001Z,46.97
2019-03-30T05:01:08.403Z,54.03
2019-03-30T05:03:36.779Z,57.10
2019-03-30T05:06:05.154Z,64.10
2019-03-30T05:08:33.483Z,54.23
2019-03-30T05:11:01.850Z,55.97
2019-03-30T05:13:30.161Z,53.53
2019-03-30T05:15:58.913Z,49.00
2019-03-30T05:18:27.331Z,46.53
2019-03-30T05:20:55.685Z,46.40
2019-03-30T05:23:24.093Z,47.87
2019-03-30T05:25:52.432Z,40.50
2019-03-30T05:28:20.828Z,44.73
2019-03-30T05:30:49.175Z,40.87
2019-03-30T05:33:18.423Z,33.07
2019-03-30T05:35:46.789Z,35.20
2019-03-30T05:38:15.137Z,33.13
2019-03-30T05:40:43.513Z,33.17
2019-03-30T05:43:11.839Z,31.33
2019-03-30T05:45:40.274Z,35.33
2019-03-30T05:48:08.775Z,31.00
2019-03-30T05:50:37.134Z,31.07
2019-03-30T05:53:05.495Z,28.70
2019-03-30T05:55:33.849Z,27.23
2019-03-30T05:58:02.303Z,29.83
2019-03-30T06:00:30.780Z,28.53
2019-03-30T06:02:59.186Z,28.53
2019-03-30T06:05:27.583Z,30.60
2019-03-30T06:07:55.983Z,32.27
2019-03-30T06:10:24.403Z,31.20
2019-03-30T06:12:52.740Z,30.13
2019-03-30T06:15:21.103Z,33.03
2019-03-30T06:17:49.469Z,32.80
2019-03-30T06:20:17.863Z,35.67
2019-03-30T06:22:46.218Z,31.50
2019-03-30T06:25:14.575Z,31.20
2019-03-30T06:27:42.912Z,42.63
2019-03-30T06:30:15.835Z,40.17
2019-03-30T06:32:44.712Z,39.13
2019-03-30T06:35:13.342Z,40.67
2019-03-30T06:37:41.753Z,34.80
2019-03-30T06:40:10.135Z,34.30
2019-03-30T06:42:41.556Z,36.07
2019-03-30T06:45:11.319Z,33.53
2019-03-30T06:47:39.753Z,38.13
2019-03-30T06:50:38.001Z,32.87
2019-03-30T06:53:07.237Z,36.13
2019-03-30T06:55:35.626Z,32.10
2019-03-30T06:58:05.038Z,32.97
2019-03-30T07:00:34.172Z,34.80
2019-03-30T07:03:04.203Z,30.37
2019-03-30T07:05:33.381Z,36.27
2019-03-30T07:08:02.216Z,32.03
2019-03-30T07:10:30.811Z,31.43
2019-03-30T07:13:00.671Z,30.90
2019-03-30T07:15:30.502Z,30.73
2019-03-30T07:18:00.351Z,28.80
2019-03-30T07:20:30.012Z,30.57
2019-03-30T07:23:11.101Z,27.13
2019-03-30T07:25:28.362Z,34.40
2019-03-30T07:27:57.188Z,25.47
2019-03-30T07:30:25.904Z,28.70
2019-03-30T07:32:54.869Z,26.03
2019-03-30T07:35:26.376Z,27.40
2019-03-30T07:37:56.026Z,25.00
2019-03-30T07:40:24.360Z,26.60
2019-03-30T07:42:52.780Z,25.00
2019-03-30T07:45:21.263Z,27.17
2019-03-30T07:47:49.804Z,24.50
2019-03-30T07:50:18.346Z,32.83
2019-03-30T07:52:46.850Z,25.27
2019-03-30T07:55:15.222Z,23.00
2019-03-30T07:57:43.751Z,26.60
2019-03-30T08:00:12.613Z,23.97
2019-03-30T08:02:41.008Z,25.97
2019-03-30T08:05:09.547Z,23.60
2019-03-30T08:07:37.963Z,24.93
2019-03-30T08:10:06.523Z,25.93
2019-03-30T08:15:44.463Z,25.20
2019-03-30T08:18:13.078Z,21.23
2019-03-30T08:20:41.612Z,22.93
2019-03-30T08:23:10.866Z,23.73
2019-03-30T08:26:30.457Z,23.13
2019-03-30T08:28:58.820Z,22.13
2019-03-30T08:31:27.190Z,20.53
2019-03-30T08:33:55.498Z,22.13
2019-03-30T08:36:23.914Z,20.77
2019-03-30T08:38:52.317Z,22.77
2019-03-30T08:41:35.951Z,22.37
2019-03-30T08:44:04.420Z,23.40
2019-03-30T08:49:42.214Z,21.30
2019-03-30T08:52:11.633Z,21.77
2019-03-30T08:54:40.620Z,23.20
2019-03-30T08:57:09.571Z,24.23
2019-03-30T08:59:37.926Z,22.10
2019-03-30T09:02:06.315Z,22.47
2019-03-30T09:04:34.712Z,20.53
2019-03-30T09:07:03.056Z,21.77
2019-03-30T09:10:04.458Z,20.97
2019-03-30T09:12:32.886Z,21.00
2019-03-30T09:15:01.283Z,24.00
2019-03-30T09:20:38.933Z,20.83
2019-03-30T09:23:08.566Z,21.53
2019-03-30T09:25:36.946Z,22.07
2019-03-30T09:28:05.419Z,22.97
2019-03-30T09:30:34.014Z,21.37
2019-03-30T09:33:02.368Z,24.63
2019-03-30T09:35:30.921Z,21.73
2019-03-30T09:37:59.561Z,23.33
2019-03-30T09:40:31.079Z,21.40
2019-03-30T09:42:59.601Z,21.43
2019-03-30T09:45:28.009Z,21.13
2019-03-30T09:47:56.349Z,23.43
2019-03-30T09:50:24.695Z,23.33
2019-03-30T09:52:53.082Z,23.73
2019-03-30T09:55:21.829Z,23.30
2019-03-30T09:57:50.191Z,22.87
2019-03-30T10:00:18.698Z,23.77
2019-03-30T10:02:47.051Z,22.47
2019-03-30T10:05:15.512Z,24.60
2019-03-30T10:07:43.958Z,20.97
2019-03-30T10:10:12.703Z,20.93
2019-03-30T10:12:41.034Z,19.70
2019-03-30T10:15:09.504Z,22.37
2019-03-30T10:17:37.859Z,23.73
2019-03-30T10:20:06.263Z,19.90
2019-03-30T10:22:34.624Z,21.00
2019-03-30T10:25:03.003Z,20.47
2019-03-30T10:27:31.349Z,23.20
2019-03-30T10:29:59.729Z,20.67
2019-03-30T10:32:28.497Z,20.83
2019-03-30T10:34:56.835Z,20.63
2019-03-30T10:37:25.245Z,21.73
2019-03-30T10:39:53.625Z,20.87
2019-03-30T10:42:22.009Z,23.03
2019-03-30T10:44:50.407Z,22.83
2019-03-30T10:47:18.782Z,22.23
2019-03-30T10:49:47.164Z,24.60
2019-03-30T10:52:15.509Z,22.73
2019-03-30T10:54:52.546Z,23.37
2019-03-30T10:57:13.989Z,25.97
2019-03-30T10:59:42.358Z,24.27
2019-03-30T11:02:10.697Z,28.73
2019-03-30T11:04:39.054Z,25.70
2019-03-30T11:07:07.749Z,28.70
2019-03-30T11:09:36.040Z,23.73
2019-03-30T11:12:04.358Z,26.43
2019-03-30T11:14:32.742Z,25.30
2019-03-30T11:17:01.079Z,25.73
2019-03-30T11:19:29.402Z,28.40
2019-03-30T11:21:57.775Z,26.90
2019-03-30T11:24:26.183Z,24.17
2019-03-30T11:26:54.566Z,26.13
2019-03-30T11:29:22.919Z,24.47
2019-03-30T11:31:51.355Z,24.27
2019-03-30T11:34:19.712Z,25.97
2019-03-30T11:36:48.119Z,24.53
2019-03-30T11:39:16.496Z,25.83
2019-03-30T11:41:44.882Z,23.67
2019-03-30T11:44:13.257Z,25.13
2019-03-30T11:46:41.641Z,29.13
2019-03-30T11:49:09.959Z,23.73
2019-03-30T11:51:38.392Z,23.03
2019-03-30T11:54:10.667Z,24.13
2019-03-30T11:56:41.226Z,20.17
2019-03-30T11:59:09.567Z,19.83
2019-03-30T12:01:37.993Z,16.57
2019-03-30T12:04:06.376Z,16.77
2019-03-30T12:06:34.763Z,20.50
2019-03-30T12:09:03.794Z,18.47
2019-03-30T12:11:32.141Z,19.23
2019-03-30T12:14:00.538Z,19.20
2019-03-30T12:16:28.938Z,20.97
2019-03-30T12:18:58.543Z,19.70
2019-03-30T12:21:27.589Z,19.70
2019-03-30T12:23:55.885Z,20.27
2019-03-30T12:26:24.318Z,17.40
2019-03-30T12:28:52.659Z,16.83
2019-03-30T12:31:21.352Z,17.47
2019-03-30T12:33:49.707Z,15.83
2019-03-30T12:36:18.025Z,15.57
2019-03-30T12:38:46.385Z,20.27
2019-03-30T12:41:14.853Z,16.43
2019-03-30T12:43:43.162Z,15.97
2019-03-30T12:46:11.481Z,18.30
2019-03-30T12:48:39.870Z,14.80
2019-03-30T12:51:08.150Z,14.00
2019-03-30T12:53:49.972Z,15.47
2019-03-30T12:56:12.063Z,15.30
2019-03-30T12:58:40.371Z,15.70
2019-03-30T13:01:08.716Z,15.23
2019-03-30T13:03:37.024Z,15.13
2019-03-30T13:06:05.387Z,12.87
2019-03-30T13:08:33.793Z,15.60
2019-03-30T13:11:04.284Z,20.83
2019-03-30T13:13:34.323Z,17.60
2019-03-30T13:16:02.797Z,13.60
2019-03-30T13:18:31.207Z,13.97
2019-03-30T13:20:59.634Z,12.53
2019-03-30T13:23:28.028Z,12.97
2019-03-30T13:26:03.365Z,13.93
2019-03-30T13:28:26.831Z,20.07
2019-03-30T13:30:55.157Z,12.63
2019-03-30T13:33:23.484Z,13.90
2019-03-30T13:35:51.841Z,13.37
2019-03-30T13:38:20.854Z,14.03
2019-03-30T13:40:49.245Z,13.30
2019-03-30T13:43:17.570Z,14.00
2019-03-30T13:45:45.891Z,12.00
2019-03-30T13:48:14.225Z,13.50
2019-03-30T13:50:42.641Z,12.00
2019-03-30T13:53:11.006Z,14.57
2019-03-30T13:55:39.346Z,14.77
2019-03-30T13:58:07.796Z,17.67
2019-03-30T14:00:36.208Z,13.53
2019-03-30T14:03:04.557Z,17.20
2019-03-30T14:05:32.936Z,13.73
2019-03-30T14:08:01.279Z,10.90
2019-03-30T14:10:29.620Z,11.83
2019-03-30T14:12:58.201Z,11.67
2019-03-30T14:15:26.584Z,13.13
2019-03-30T14:17:54.987Z,12.23
2019-03-30T14:20:23.588Z,13.77
2019-03-30T14:22:52.011Z,13.30
2019-03-30T14:25:20.386Z,11.93
2019-03-30T14:27:48.763Z,12.40
2019-03-30T14:30:18.226Z,18.10
2019-03-30T14:32:46.602Z,12.83
2019-03-30T14:35:15.155Z,12.57
2019-03-30T14:37:43.506Z,13.17
2019-03-30T14:40:11.973Z,12.00
2019-03-30T14:42:40.315Z,12.13
2019-03-30T14:45:08.931Z,12.00
2019-03-30T14:50:32.869Z,12.40
2019-03-30T14:53:01.221Z,12.93
2019-03-30T14:55:29.678Z,12.77
2019-03-30T14:57:58.104Z,16.63
2019-03-30T15:00:26.615Z,13.20
2019-03-30T15:02:55.164Z,12.37
2019-03-30T15:05:23.501Z,12.83
2019-03-30T15:08:10.975Z,13.93
2019-03-30T15:10:39.320Z,11.73
2019-03-30T15:13:07.687Z,10.93
2019-03-30T15:15:36.097Z,10.73
2019-03-30T15:18:04.596Z,10.27
2019-03-30T15:20:32.963Z,11.43
2019-03-30T15:23:28.003Z,10.77
2019-03-30T15:25:56.462Z,11.90
2019-03-30T15:28:24.923Z,14.67
2019-03-30T15:30:53.324Z,12.33
2019-03-30T15:33:21.627Z,15.03
2019-03-30T15:35:50.097Z,13.70
2019-03-30T15:38:18.440Z,13.10
2019-03-30T15:40:46.801Z,12.90
2019-03-30T15:43:15.399Z,12.70
2019-03-30T15:45:43.765Z,13.23
2019-03-30T15:48:12.178Z,12.83
2019-03-30T15:50:40.644Z,14.63
2019-03-30T15:53:09.046Z,13.70
2019-03-30T15:55:37.444Z,13.13
2019-03-30T15:58:05.825Z,13.20
2019-03-30T16:00:34.274Z,15.73
2019-03-30T16:03:35.463Z,15.57
2019-03-30T16:06:03.859Z,15.57
2019-03-30T16:08:32.397Z,11.80
2019-03-30T16:11:00.753Z,12.37
2019-03-30T16:13:29.293Z,12.37
2019-03-30T16:15:58.119Z,12.07
2019-03-30T16:18:26.975Z,12.10
2019-03-30T16:20:55.855Z,12.93
2019-03-30T16:23:24.214Z,12.63
2019-03-30T16:25:53.129Z,12.73
2019-03-30T16:28:21.904Z,13.20
2019-03-30T16:30:50.292Z,12.13
2019-03-30T16:33:19.241Z,12.50
2019-03-30T16:35:48.007Z,11.20
2019-03-30T16:38:16.952Z,16.77
2019-03-30T16:40:45.254Z,13.13
2019-03-30T16:43:14.246Z,12.67
2019-03-30T16:45:43.142Z,11.30
2019-03-30T16:48:14.626Z,12.17
2019-03-30T16:50:44.572Z,13.57
2019-03-30T16:53:13.238Z,14.17
2019-03-30T16:55:41.758Z,11.57
2019-03-30T16:58:10.180Z,11.17
2019-03-30T17:00:55.296Z,16.77
2019-03-30T17:03:09.970Z,12.47
2019-03-30T17:05:38.562Z,11.70
2019-03-30T17:08:07.305Z,18.00
2019-03-30T17:10:40.033Z,13.90
2019-03-30T17:13:06.951Z,13.77
2019-03-30T17:15:35.717Z,13.03
2019-03-30T17:18:04.447Z,18.00
2019-03-30T17:20:32.951Z,18.27
2019-03-30T17:23:04.090Z,14.97
2019-03-30T17:25:32.747Z,20.20
2019-03-30T17:28:01.178Z,18.00
2019-03-30T17:30:29.724Z,18.20
2019-03-30T17:32:58.240Z,20.40
2019-03-30T17:35:26.891Z,27.63
2019-03-30T17:37:55.412Z,30.37
2019-03-30T17:40:23.736Z,32.77
2019-03-30T17:42:52.387Z,36.47
2019-03-30T17:45:21.065Z,38.70
2019-03-30T17:47:49.775Z,42.60
2019-03-30T17:50:18.399Z,42.93
2019-03-30T17:52:46.835Z,42.10
2019-03-30T17:55:15.285Z,44.47
2019-03-30T17:57:43.790Z,40.90
2019-03-30T18:00:14.645Z,42.00
2019-03-30T18:02:43.190Z,42.73
2019-03-30T18:05:11.978Z,41.00
2019-03-30T18:07:40.352Z,40.90
2019-03-30T18:10:08.749Z,42.50
2019-03-30T18:12:37.231Z,40.27
2019-03-30T18:15:06.768Z,42.27
2019-03-30T18:17:35.342Z,45.07
2019-03-30T18:20:05.813Z,44.63
2019-03-30T18:22:34.451Z,47.83
2019-03-30T18:25:03.613Z,51.00
2019-03-30T18:27:32.774Z,47.33
2019-03-30T18:30:31.549Z,53.30
2019-03-30T18:33:00.332Z,52.80
2019-03-30T18:35:29.511Z,53.23
2019-03-30T18:37:58.494Z,53.40
2019-03-30T18:40:28.613Z,52.57
2019-03-30T18:42:57.698Z,50.27
2019-03-30T18:45:27.131Z,51.37
2019-03-30T18:47:57.559Z,55.00
2019-03-30T18:50:26.087Z,53.57
2019-03-30T18:52:54.763Z,58.77
2019-03-30T18:55:23.946Z,57.17
2019-03-30T18:57:53.130Z,58.90
2019-03-30T19:00:26.800Z,61.13
2019-03-30T19:02:55.278Z,65.23
2019-03-30T19:05:23.908Z,71.23
2019-03-30T19:07:53.311Z,65.33
2019-03-30T19:10:21.702Z,74.13
2019-03-30T19:12:50.087Z,69.87
2019-03-30T19:18:28.860Z,66.63
2019-03-30T19:21:36.253Z,67.70
2019-03-30T19:24:04.613Z,67.13
2019-03-30T19:26:33.081Z,68.20
2019-03-30T19:29:01.903Z,65.37
2019-03-30T19:31:30.736Z,64.27
2019-03-30T19:33:59.619Z,59.53
2019-03-30T19:36:28.603Z,64.93
2019-03-30T19:38:57.458Z,72.03
2019-03-30T19:41:26.263Z,64.90
2019-03-30T19:43:54.577Z,69.23
2019-03-30T19:46:26.457Z,65.50
2019-03-30T19:48:53.007Z,65.90
2019-03-30T19:51:21.510Z,66.10
2019-03-30T19:53:49.911Z,65.17
2019-03-30T20:03:21.069Z,66.70
2019-03-30T20:12:40.557Z,69.37
2019-03-30T20:14:50.972Z,65.17
2019-03-30T20:15:09.185Z,73.07
2019-03-30T20:17:37.634Z,67.00
2019-03-30T20:20:06.578Z,67.90
2019-03-30T20:22:34.983Z,67.73
2019-03-30T20:25:03.429Z,63.73
2019-03-30T20:27:32.957Z,59.90
2019-03-30T20:30:01.334Z,70.20
2019-03-30T20:32:29.750Z,63.47
2019-03-30T20:34:58.206Z,64.47
2019-03-30T20:37:30.875Z,70.70
2019-03-30T20:40:00.349Z,66.87
2019-03-30T20:42:28.896Z,72.80
2019-03-30T20:44:57.359Z,68.13
2019-03-30T20:47:25.808Z,67.50
2019-03-30T20:49:54.718Z,68.60
2019-03-30T20:52:23.642Z,65.83
2019-03-30T20:54:52.552Z,69.37
2019-03-30T20:57:20.882Z,64.60
2019-03-30T20:59:49.368Z,61.63
2019-03-30T21:02:18.596Z,64.93
2019-03-30T21:05:02.576Z,61.90
2019-03-30T21:07:30.985Z,61.43
2019-03-30T21:09:59.376Z,62.97
2019-03-30T21:12:27.867Z,65.50
2019-03-30T21:14:56.408Z,69.40
2019-03-30T21:17:24.972Z,66.67
2019-03-30T21:19:53.500Z,71.77
2019-03-30T21:22:21.997Z,73.07
2019-03-30T21:24:50.539Z,72.73
2019-03-30T21:30:40.877Z,69.13
2019-03-30T21:33:10.242Z,74.67
2019-03-30T21:35:38.682Z,73.80
2019-03-30T21:38:07.091Z,69.57
2019-03-30T21:40:36.894Z,69.57
2019-03-30T21:43:05.844Z,69.20
2019-03-30T21:45:35.281Z,72.27
2019-03-30T21:48:03.833Z,66.43
2019-03-30T21:50:32.426Z,66.33
2019-03-30T21:53:00.754Z,70.10
2019-03-30T21:55:29.412Z,75.63
2019-03-30T21:57:58.421Z,69.77
2019-03-30T22:00:34.508Z,68.73
2019-03-30T22:03:03.100Z,70.10
2019-03-30T22:05:31.573Z,70.50
2019-03-30T22:07:59.922Z,69.40
2019-03-30T22:10:28.325Z,77.17
2019-03-30T22:12:56.812Z,73.20
2019-03-30T22:15:27.634Z,72.90
2019-03-30T22:17:56.344Z,71.17
2019-03-30T22:20:25.037Z,71.47
2019-03-30T22:22:53.815Z,65.17
2019-03-30T22:25:22.346Z,67.73
2019-03-30T22:27:50.928Z,69.40
2019-03-30T22:30:25.076Z,66.27
2019-03-30T22:32:49.927Z,65.50
2019-03-30T22:35:18.854Z,70.27
2019-03-30T22:37:47.848Z,65.33
2019-03-30T22:40:16.674Z,69.73
2019-03-30T22:42:45.506Z,63.33
2019-03-30T22:45:14.264Z,63.20
2019-03-30T22:47:42.615Z,63.97
2019-03-30T22:50:11.763Z,65.30
2019-03-30T22:52:40.543Z,64.03
2019-03-30T22:55:09.149Z,63.67
2019-03-30T22:57:38.123Z,65.57
2019-03-30T23:00:08.055Z,66.03
2019-03-30T23:02:37.801Z,61.47
2019-03-30T23:05:06.509Z,62.70
2019-03-30T23:07:35.596Z,65.70
2019-03-30T23:10:04.425Z,67.77
2019-03-30T23:12:33.084Z,69.17
2019-03-30T23:15:01.640Z,66.43
2019-03-30T23:17:30.455Z,60.97
2019-03-30T23:19:59.080Z,64.43
2019-03-30T23:22:27.543Z,58.70
2019-03-30T23:24:56.009Z,66.23
2019-03-30T23:27:24.736Z,66.73
2019-03-30T23:29:53.514Z,64.03
2019-03-30T23:32:21.871Z,55.53
2019-03-30T23:34:50.739Z,60.73
2019-03-30T23:37:19.074Z,59.07
2019-03-30T23:39:47.439Z,57.00
2019-03-30T23:42:15.865Z,56.73
2019-03-30T23:44:44.687Z,61.73
2019-03-30T23:47:13.021Z,60.77
2019-03-30T23:49:41.520Z,57.03
2019-03-30T23:52:09.830Z,55.77
2019-03-30T23:54:38.195Z,52.70
2019-03-30T23:57:06.540Z,51.47
2019-03-30T23:59:34.942Z,50.73
